Time;durP1;ratioP1;P1;durP2;ratioP2;P2;SDS_P1;SDS_P2;PMS_P1;PMS_P2;Temp;Humidity;BMP_temperature;BMP_pressure;BME280_temperature;BME280_humidity;BME280_pressure;Samples;Min_cycle;Max_cycle;Signal;HPM_P1;HPM_P2
2024/01/26 00:01:13;;;;;;;10.18;5.25;;;2.10;99.90;;;;;;5055671;28;20104;-83
2024/01/26 00:03:39;;;;;;;10.43;5.88;;;2.00;99.90;;;;;;5054224;28;20036;-83
2024/01/26 00:06:05;;;;;;;8.05;5.03;;;2.00;99.90;;;;;;5054263;28;20059;-83
2024/01/26 00:08:31;;;;;;;9.10;5.15;;;2.00;99.90;;;;;;5055689;28;20029;-83
2024/01/26 00:10:57;;;;;;;9.27;6.22;;;2.00;99.90;;;;;;5037468;28;20025;-83
2024/01/26 00:13:23;;;;;;;10.88;6.25;;;2.00;99.90;;;;;;5037613;28;20032;-83
2024/01/26 00:15:50;;;;;;;10.57;6.00;;;2.00;99.90;;;;;;5037467;28;20071;-83
2024/01/26 00:18:16;;;;;;;12.23;6.57;;;2.00;99.90;;;;;;5037578;28;20119;-83
2024/01/26 00:20:41;;;;;;;10.60;6.43;;;2.00;99.90;;;;;;5037230;28;20128;-83
2024/01/26 00:23:07;;;;;;;10.52;6.68;;;2.00;99.90;;;;;;5037347;28;20535;-83
2024/01/26 00:25:33;;;;;;;12.68;6.88;;;2.00;99.90;;;;;;5054236;28;20044;-83
2024/01/26 00:27:58;;;;;;;12.02;7.43;;;2.00;99.90;;;;;;5054001;28;20021;-83
2024/01/26 00:30:24;;;;;;;13.18;6.93;;;2.00;99.90;;;;;;5055412;28;20083;-83
2024/01/26 00:32:49;;;;;;;8.15;5.35;;;2.00;99.90;;;;;;5037463;28;20115;-84
2024/01/26 00:35:15;;;;;;;8.18;5.15;;;2.00;99.90;;;;;;5053582;28;20040;-83
2024/01/26 00:37:41;;;;;;;9.30;5.50;;;2.10;99.90;;;;;;5054935;28;20033;-83
2024/01/26 00:40:07;;;;;;;8.15;4.80;;;2.10;99.90;;;;;;5055251;28;20457;-83
2024/01/26 00:42:33;;;;;;;8.32;4.60;;;2.10;99.90;;;;;;5052956;28;20021;-83
2024/01/26 00:44:59;;;;;;;9.13;5.60;;;2.00;99.90;;;;;;5054143;28;20151;-83
2024/01/26 00:47:24;;;;;;;10.27;5.47;;;2.10;99.90;;;;;;5036928;28;20033;-84
2024/01/26 00:49:50;;;;;;;9.68;5.03;;;2.10;99.90;;;;;;5053357;28;20501;-83
2024/01/26 00:52:16;;;;;;;9.95;5.65;;;2.10;99.90;;;;;;5053837;28;20540;-84
2024/01/26 00:54:41;;;;;;;8.35;5.18;;;2.10;99.90;;;;;;5053440;28;20492;-85
2024/01/26 00:57:07;;;;;;;9.38;5.68;;;2.00;99.90;;;;;;5053271;28;20404;-85
2024/01/26 00:59:33;;;;;;;8.65;5.15;;;2.00;99.90;;;;;;5036676;28;20029;-85
2024/01/26 01:01:58;;;;;;;8.93;5.43;;;2.00;99.90;;;;;;5053074;28;20029;-85
2024/01/26 01:04:27;;;;;;;8.77;5.22;;;2.00;99.90;;;;;;5036785;28;20489;-85
2024/01/26 01:06:52;;;;;;;9.18;5.60;;;2.00;99.90;;;;;;5036921;28;20036;-85
2024/01/26 01:09:19;;;;;;;9.05;5.40;;;2.00;99.90;;;;;;5036654;28;20408;-85
2024/01/26 01:11:48;;;;;;;8.98;5.53;;;2.00;99.90;;;;;;5053197;28;20032;-85
2024/01/26 01:14:13;;;;;;;9.68;5.80;;;2.00;99.90;;;;;;5036301;28;20499;-85
2024/01/26 01:16:39;;;;;;;11.05;5.82;;;2.00;99.90;;;;;;5036495;28;20033;-84
2024/01/26 01:19:07;;;;;;;8.27;5.03;;;2.00;99.90;;;;;;5036370;28;20036;-85
2024/01/26 01:21:32;;;;;;;11.52;6.38;;;2.00;99.90;;;;;;5036489;28;20120;-85
2024/01/26 01:23:58;;;;;;;9.25;5.38;;;2.00;99.90;;;;;;5036580;28;20052;-85
2024/01/26 01:26:24;;;;;;;9.88;5.85;;;1.90;99.90;;;;;;5036205;28;20029;-84
2024/01/26 01:28:49;;;;;;;8.73;5.35;;;1.90;99.90;;;;;;5036344;28;20033;-85
2024/01/26 01:31:15;;;;;;;9.10;5.57;;;1.90;99.90;;;;;;5053343;28;20078;-85
2024/01/26 01:33:41;;;;;;;9.68;5.38;;;1.90;99.90;;;;;;5053013;28;20037;-85
2024/01/26 01:36:06;;;;;;;11.93;6.38;;;1.90;99.90;;;;;;5036072;28;20485;-85
2024/01/26 01:38:32;;;;;;;10.02;6.30;;;2.00;99.90;;;;;;5036159;28;20443;-85
2024/01/26 01:40:58;;;;;;;11.98;6.65;;;2.00;99.90;;;;;;5052890;28;20025;-85
2024/01/26 01:43:24;;;;;;;10.60;6.88;;;2.00;99.90;;;;;;5036848;28;20033;-85
2024/01/26 01:45:50;;;;;;;9.45;6.32;;;2.10;99.90;;;;;;5036239;28;20029;-85
2024/01/26 01:48:16;;;;;;;10.25;6.47;;;2.10;99.90;;;;;;5052671;28;20444;-84
2024/01/26 01:50:42;;;;;;;12.68;7.30;;;2.10;99.90;;;;;;5052494;28;20041;-85
2024/01/26 01:53:09;;;;;;;9.23;6.00;;;2.00;99.90;;;;;;5035577;28;20049;-84
2024/01/26 01:55:36;;;;;;;13.27;7.70;;;2.00;99.90;;;;;;5035768;28;20036;-84
2024/01/26 01:58:03;;;;;;;13.30;7.47;;;1.90;99.90;;;;;;5035931;28;20040;-84
2024/01/26 02:00:30;;;;;;;14.90;8.50;;;1.90;99.90;;;;;;5036135;28;20035;-85
2024/01/26 02:02:55;;;;;;;13.60;6.90;;;2.00;99.90;;;;;;5035895;28;20021;-85
2024/01/26 02:05:21;;;;;;;11.57;6.78;;;2.00;99.90;;;;;;5035752;28;20535;-85
2024/01/26 02:07:51;;;;;;;9.88;6.32;;;1.90;99.90;;;;;;5036026;28;20072;-85
2024/01/26 02:10:17;;;;;;;9.85;5.93;;;1.90;99.90;;;;;;5053803;28;20497;-84
2024/01/26 02:12:44;;;;;;;11.07;6.68;;;1.90;99.90;;;;;;5052103;28;20033;-84
2024/01/26 02:15:10;;;;;;;10.70;6.53;;;1.90;99.90;;;;;;5053344;28;20047;-84
2024/01/26 02:17:36;;;;;;;9.88;5.90;;;1.80;99.90;;;;;;5052259;28;20402;-84
2024/01/26 02:20:06;;;;;;;13.93;7.13;;;1.80;99.90;;;;;;5052289;28;20055;-84
2024/01/26 02:22:32;;;;;;;10.20;6.53;;;1.80;99.90;;;;;;5035917;28;20025;-84
2024/01/26 02:24:58;;;;;;;10.15;6.20;;;1.80;99.90;;;;;;5052424;28;20029;-84
2024/01/26 02:27:23;;;;;;;9.43;5.90;;;1.90;99.90;;;;;;5035610;28;20036;-84
2024/01/26 02:29:49;;;;;;;10.38;6.53;;;1.80;99.90;;;;;;5051870;28;20032;-84
2024/01/26 02:32:15;;;;;;;11.55;6.00;;;1.90;99.90;;;;;;5051994;28;20029;-85
2024/01/26 02:34:41;;;;;;;9.32;5.78;;;1.90;99.90;;;;;;5035081;28;20405;-85
2024/01/26 02:37:09;;;;;;;10.63;5.80;;;1.90;99.90;;;;;;5051832;28;20025;-84
2024/01/26 02:39:35;;;;;;;11.48;6.25;;;1.90;99.90;;;;;;5053022;28;20078;-84
2024/01/26 02:42:00;;;;;;;10.90;6.65;;;1.90;99.90;;;;;;5051729;28;20021;-84
2024/01/26 02:44:26;;;;;;;10.20;6.25;;;1.90;99.90;;;;;;5035088;28;20033;-85
2024/01/26 02:46:52;;;;;;;14.23;7.60;;;1.80;99.90;;;;;;5052968;28;20031;-84
2024/01/26 02:49:17;;;;;;;12.50;6.70;;;1.80;99.90;;;;;;5051908;28;20481;-84
2024/01/26 02:51:43;;;;;;;12.95;7.32;;;1.80;99.90;;;;;;5035399;28;20033;-84
2024/01/26 02:54:09;;;;;;;12.10;6.68;;;1.80;99.90;;;;;;5035411;28;20029;-84
2024/01/26 02:56:35;;;;;;;15.50;7.82;;;1.80;99.90;;;;;;5035107;28;20147;-84
2024/01/26 02:59:00;;;;;;;20.48;9.45;;;1.80;99.90;;;;;;5052013;28;20036;-85
2024/01/26 03:01:26;;;;;;;22.52;9.20;;;1.70;99.90;;;;;;5035606;28;20473;-85
2024/01/26 03:03:52;;;;;;;20.42;10.13;;;1.80;99.90;;;;;;5035405;28;20067;-85
2024/01/26 03:06:18;;;;;;;17.85;8.55;;;1.80;99.90;;;;;;5037553;28;20056;-85
2024/01/26 03:08:43;;;;;;;24.42;11.63;;;1.80;99.90;;;;;;5056118;28;20040;-85
2024/01/26 03:11:12;;;;;;;27.85;13.30;;;1.70;99.90;;;;;;5039029;28;20025;-85
2024/01/26 03:13:37;;;;;;;18.02;9.93;;;1.80;99.90;;;;;;5055771;28;20056;-85
2024/01/26 03:16:03;;;;;;;17.98;9.10;;;1.80;99.90;;;;;;5038720;28;20438;-85
2024/01/26 03:18:29;;;;;;;15.95;7.95;;;1.70;99.90;;;;;;5038614;28;20029;-85
2024/01/26 03:20:55;;;;;;;14.27;7.32;;;1.70;99.90;;;;;;5038735;28;20051;-86
2024/01/26 03:23:21;;;;;;;13.90;6.80;;;1.70;99.90;;;;;;5038492;28;20064;-85
2024/01/26 03:25:47;;;;;;;11.32;6.35;;;1.80;99.90;;;;;;5038542;28;20029;-85
2024/01/26 03:28:12;;;;;;;10.40;6.07;;;1.70;99.90;;;;;;5055224;28;20052;-85
2024/01/26 03:30:38;;;;;;;12.27;6.82;;;1.70;99.90;;;;;;5038565;28;20401;-85
2024/01/26 03:33:04;;;;;;;9.95;5.80;;;1.70;99.90;;;;;;5055216;28;20435;-85
2024/01/26 03:38:02;;;;;;;10.02;6.07;;;1.70;99.90;;;;;;5014941;28;20433;-76
2024/01/26 03:40:28;;;;;;;8.98;5.68;;;1.80;99.90;;;;;;5016284;28;20041;-76
2024/01/26 03:42:54;;;;;;;9.27;5.18;;;1.70;99.90;;;;;;5016069;28;20034;-76
2024/01/26 03:45:19;;;;;;;13.23;6.65;;;1.70;99.90;;;;;;5014858;28;20022;-77
2024/01/26 03:47:45;;;;;;;11.13;6.55;;;1.70;99.90;;;;;;5014679;28;20051;-76
2024/01/26 03:50:11;;;;;;;11.10;6.13;;;1.70;99.90;;;;;;5015870;28;20105;-76
2024/01/26 03:52:37;;;;;;;10.40;5.70;;;1.70;99.90;;;;;;5014679;28;20111;-76
2024/01/26 03:55:06;;;;;;;12.40;5.78;;;1.80;99.90;;;;;;5016405;28;20092;-76
2024/01/26 03:57:32;;;;;;;16.52;7.90;;;1.70;99.90;;;;;;5015760;28;20073;-76
2024/01/26 03:59:58;;;;;;;10.50;6.30;;;1.70;99.90;;;;;;5016115;28;20429;-76
2024/01/26 04:02:23;;;;;;;9.05;5.05;;;1.70;99.90;;;;;;5015722;28;20084;-76
2024/01/26 04:04:49;;;;;;;7.13;4.68;;;1.80;99.90;;;;;;5015605;28;20105;-75
2024/01/26 04:07:15;;;;;;;7.00;4.10;;;1.80;99.90;;;;;;5020717;28;20079;-76
2024/01/26 04:09:40;;;;;;;6.78;4.28;;;1.80;99.90;;;;;;5015754;28;20033;-77
2024/01/26 04:12:06;;;;;;;8.63;4.50;;;1.80;99.90;;;;;;5014329;28;20032;-76
2024/01/26 04:14:32;;;;;;;7.53;4.22;;;1.80;99.90;;;;;;5015448;28;20056;-76
2024/01/26 04:16:57;;;;;;;6.68;3.97;;;1.80;99.90;;;;;;5015331;28;20026;-76
2024/01/26 04:19:23;;;;;;;7.75;4.55;;;1.80;99.90;;;;;;5015247;28;20026;-76
2024/01/26 04:21:49;;;;;;;7.22;4.10;;;1.80;99.90;;;;;;5015036;28;20022;-76
2024/01/26 04:24:15;;;;;;;7.93;4.53;;;1.80;99.90;;;;;;5015474;28;20389;-76
2024/01/26 04:26:41;;;;;;;8.55;4.53;;;1.90;99.90;;;;;;5015265;28;20033;-76
2024/01/26 04:29:07;;;;;;;6.45;3.85;;;1.80;99.90;;;;;;5015111;28;20029;-76
2024/01/26 04:31:33;;;;;;;5.65;3.83;;;1.80;99.90;;;;;;5015450;28;20037;-76
2024/01/26 04:33:59;;;;;;;6.80;4.03;;;1.80;99.90;;;;;;5015049;28;20088;-77
2024/01/26 04:36:24;;;;;;;7.25;4.47;;;1.80;99.90;;;;;;5015083;28;20038;-76
2024/01/26 04:38:50;;;;;;;9.30;5.40;;;1.80;99.90;;;;;;5033731;28;20075;-76
2024/01/26 04:41:15;;;;;;;8.65;5.32;;;1.80;99.90;;;;;;5033586;28;20496;-76
2024/01/26 04:43:43;;;;;;;9.25;4.85;;;1.80;99.90;;;;;;5034969;28;20030;-76
2024/01/26 04:46:08;;;;;;;7.65;4.88;;;1.80;99.90;;;;;;5034647;28;20584;-76
2024/01/26 04:48:34;;;;;;;7.57;4.35;;;1.80;99.90;;;;;;5033241;28;20116;-76
2024/01/26 04:51:00;;;;;;;7.70;4.93;;;1.70;99.90;;;;;;5034416;28;20025;-76
2024/01/26 04:53:26;;;;;;;9.48;4.65;;;1.70;99.90;;;;;;5034297;28;20029;-76
2024/01/26 04:55:53;;;;;;;8.75;5.43;;;1.70;99.90;;;;;;5034434;28;20033;-76
2024/01/26 04:58:19;;;;;;;8.32;5.28;;;1.70;99.90;;;;;;5034308;28;20399;-77
2024/01/26 05:00:45;;;;;;;8.18;5.18;;;1.70;99.90;;;;;;5034348;28;20036;-76
2024/01/26 05:03:10;;;;;;;11.95;6.20;;;1.70;99.90;;;;;;5034354;28;20485;-76
2024/01/26 05:05:36;;;;;;;11.55;6.45;;;1.80;99.90;;;;;;5034238;28;20029;-76
2024/01/26 05:08:02;;;;;;;23.63;12.00;;;1.80;99.90;;;;;;5033854;28;20028;-76
2024/01/26 05:10:28;;;;;;;22.00;11.25;;;1.90;99.90;;;;;;5033001;28;20034;-76
2024/01/26 05:12:54;;;;;;;21.88;11.07;;;1.90;99.90;;;;;;5033029;28;20029;-76
2024/01/26 05:15:19;;;;;;;52.10;21.25;;;1.90;99.90;;;;;;5034071;28;20033;-76
2024/01/26 05:17:45;;;;;;;42.20;18.35;;;1.90;99.90;;;;;;5033962;28;20025;-76
2024/01/26 05:20:11;;;;;;;22.02;10.30;;;1.90;99.90;;;;;;5033965;28;20072;-76
2024/01/26 05:22:37;;;;;;;38.22;16.05;;;1.90;99.90;;;;;;5033718;28;20030;-76
2024/01/26 05:25:02;;;;;;;31.45;14.32;;;1.90;99.90;;;;;;5033916;28;20033;-76
2024/01/26 05:27:29;;;;;;;28.30;13.65;;;1.80;99.90;;;;;;5033551;28;20485;-77
2024/01/26 05:29:55;;;;;;;27.90;13.10;;;1.80;99.90;;;;;;5032608;28;20022;-77
2024/01/26 05:32:22;;;;;;;31.77;15.23;;;1.80;99.90;;;;;;5032712;28;20029;-76
2024/01/26 05:34:47;;;;;;;29.42;15.60;;;1.80;99.90;;;;;;5033765;28;20393;-76
2024/01/26 05:37:13;;;;;;;26.27;13.05;;;1.80;99.90;;;;;;5032627;28;20046;-77
2024/01/26 05:39:39;;;;;;;22.52;11.63;;;1.90;99.90;;;;;;5033558;28;20037;-76
2024/01/26 05:42:05;;;;;;;24.48;12.13;;;1.80;99.90;;;;;;5033602;28;20025;-77
2024/01/26 05:44:31;;;;;;;22.77;10.73;;;1.80;99.90;;;;;;5034319;28;20076;-77
2024/01/26 05:46:56;;;;;;;21.20;11.85;;;1.80;99.90;;;;;;5034409;28;20026;-77
2024/01/26 05:49:23;;;;;;;20.60;10.45;;;1.80;99.90;;;;;;5033502;28;20029;-77
2024/01/26 05:51:49;;;;;;;15.20;9.32;;;1.80;99.90;;;;;;5032809;28;20048;-76
2024/01/26 05:54:15;;;;;;;23.23;12.60;;;1.80;99.90;;;;;;5034577;28;20478;-76
2024/01/26 05:56:41;;;;;;;19.50;10.70;;;1.80;99.90;;;;;;5034564;28;20113;-76
2024/01/26 05:59:07;;;;;;;21.33;12.50;;;1.80;99.90;;;;;;5034662;28;20433;-77
2024/01/26 06:01:34;;;;;;;19.25;11.13;;;1.80;99.90;;;;;;5034008;28;20543;-77
2024/01/26 06:03:59;;;;;;;14.75;9.40;;;1.80;99.90;;;;;;5034268;28;20026;-77
2024/01/26 06:06:25;;;;;;;15.80;8.95;;;1.90;99.90;;;;;;5033967;28;20029;-77
2024/01/26 06:08:51;;;;;;;14.48;9.15;;;1.80;99.90;;;;;;5033689;28;20381;-77
2024/01/26 06:11:17;;;;;;;17.88;10.73;;;1.80;99.90;;;;;;5033452;28;20504;-77
2024/01/26 06:13:43;;;;;;;16.02;9.68;;;1.80;99.90;;;;;;5033378;28;20029;-77
2024/01/26 06:16:13;;;;;;;16.00;9.95;;;1.70;99.90;;;;;;5033380;28;20037;-77
2024/01/26 06:18:39;;;;;;;18.47;10.63;;;1.70;99.90;;;;;;5032163;28;20021;-77
2024/01/26 06:21:05;;;;;;;20.98;11.50;;;1.80;99.90;;;;;;5033566;28;20260;-77
2024/01/26 06:23:30;;;;;;;22.98;13.18;;;1.80;99.90;;;;;;5033858;28;20026;-77
2024/01/26 06:25:56;;;;;;;23.38;13.63;;;1.80;99.90;;;;;;5033283;28;20028;-77
2024/01/26 06:28:22;;;;;;;20.45;12.40;;;1.80;99.90;;;;;;5032193;28;20021;-77
2024/01/26 06:30:48;;;;;;;20.48;12.35;;;1.80;99.90;;;;;;5032121;28;20517;-77
2024/01/26 06:33:14;;;;;;;18.98;11.05;;;1.80;99.90;;;;;;5032978;28;20041;-77
2024/01/26 06:35:40;;;;;;;16.88;10.43;;;1.80;99.90;;;;;;5032924;28;20042;-77
2024/01/26 06:38:05;;;;;;;33.47;17.10;;;1.80;99.90;;;;;;5033469;28;20030;-77
2024/01/26 06:40:31;;;;;;;49.03;24.52;;;1.80;99.90;;;;;;5035080;28;20489;-77
2024/01/26 06:42:57;;;;;;;49.75;25.52;;;1.80;99.90;;;;;;5035871;28;20477;-77
2024/01/26 06:45:22;;;;;;;52.47;27.30;;;1.80;99.90;;;;;;5036965;28;20033;-77
2024/01/26 06:47:48;;;;;;;35.30;19.33;;;1.80;99.90;;;;;;5036921;28;20029;-77
2024/01/26 06:50:14;;;;;;;19.77;9.27;;;1.80;99.90;;;;;;5036876;28;20156;-77
2024/01/26 06:52:40;;;;;;;12.45;7.10;;;1.70;99.90;;;;;;5036916;28;20030;-77
2024/01/26 06:55:05;;;;;;;13.30;7.40;;;1.80;99.90;;;;;;5036906;28;20041;-77
2024/01/26 06:57:31;;;;;;;11.52;6.85;;;1.80;99.90;;;;;;5037361;28;20030;-77
2024/01/26 06:59:57;;;;;;;12.25;6.85;;;1.80;99.90;;;;;;5036752;28;20489;-76
2024/01/26 07:02:23;;;;;;;11.05;6.65;;;1.80;99.90;;;;;;5035550;28;20026;-77
2024/01/26 07:04:49;;;;;;;11.00;6.03;;;1.80;99.90;;;;;;5036980;28;20033;-77
2024/01/26 07:07:14;;;;;;;12.18;7.07;;;1.90;99.90;;;;;;5036438;28;20056;-77
2024/01/26 07:09:40;;;;;;;18.05;9.32;;;1.90;99.90;;;;;;5036523;28;20033;-77
2024/01/26 07:12:06;;;;;;;14.18;8.85;;;1.90;99.90;;;;;;5036923;28;20133;-76
2024/01/26 07:14:32;;;;;;;18.67;10.57;;;1.90;99.90;;;;;;5036920;28;20033;-77
2024/01/26 07:16:57;;;;;;;14.27;8.55;;;1.90;99.90;;;;;;5036721;28;20040;-77
2024/01/26 07:19:23;;;;;;;14.05;8.95;;;1.90;99.90;;;;;;5034980;28;20080;-77
2024/01/26 07:21:48;;;;;;;12.70;7.75;;;1.90;99.90;;;;;;5036140;28;20026;-77
2024/01/26 07:24:14;;;;;;;14.98;7.75;;;2.00;99.90;;;;;;5036560;28;20033;-77
2024/01/26 07:26:41;;;;;;;12.70;6.82;;;2.00;99.90;;;;;;5036431;28;20078;-77
2024/01/26 07:29:06;;;;;;;16.50;8.30;;;2.00;99.90;;;;;;5036222;28;20049;-77
2024/01/26 07:31:32;;;;;;;11.10;6.72;;;2.00;99.90;;;;;;5036681;28;20033;-77
2024/01/26 07:33:58;;;;;;;13.65;7.60;;;2.00;99.90;;;;;;5036133;28;20029;-77
2024/01/26 07:36:23;;;;;;;13.10;6.90;;;2.00;99.90;;;;;;5035593;28;20041;-76
2024/01/26 07:38:49;;;;;;;15.27;8.68;;;2.00;99.90;;;;;;5035984;28;20037;-77
2024/01/26 07:41:15;;;;;;;13.52;7.40;;;2.00;99.90;;;;;;5036277;28;20022;-77
2024/01/26 07:43:40;;;;;;;15.43;7.63;;;2.00;99.90;;;;;;5035876;28;20446;-77
2024/01/26 07:46:06;;;;;;;13.38;7.45;;;2.00;99.90;;;;;;5036114;28;20033;-77
2024/01/26 07:48:32;;;;;;;12.05;6.85;;;2.10;99.90;;;;;;5036116;28;20021;-77
2024/01/26 07:50:57;;;;;;;10.93;6.90;;;2.10;99.90;;;;;;5034077;28;20037;-77
2024/01/26 07:53:23;;;;;;;16.65;8.38;;;2.10;99.90;;;;;;5035755;28;20091;-77
2024/01/26 07:55:49;;;;;;;16.83;9.57;;;2.10;99.90;;;;;;5035660;28;20080;-77
2024/01/26 07:58:16;;;;;;;16.33;8.82;;;2.10;99.90;;;;;;5036043;28;20497;-77
2024/01/26 08:00:42;;;;;;;15.35;8.75;;;2.10;99.90;;;;;;5035556;28;20025;-77
2024/01/26 08:03:07;;;;;;;21.52;12.15;;;2.20;99.90;;;;;;5034420;28;20444;-77
2024/01/26 08:05:33;;;;;;;27.85;15.15;;;2.20;99.90;;;;;;5035509;28;20029;-77
2024/01/26 08:07:59;;;;;;;29.38;16.90;;;2.20;99.90;;;;;;5035082;28;20024;-77
2024/01/26 08:10:25;;;;;;;25.60;15.63;;;2.20;99.90;;;;;;5034111;28;20116;-77
2024/01/26 08:12:51;;;;;;;24.95;14.13;;;2.20;99.90;;;;;;5035350;28;20029;-77
2024/01/26 08:15:17;;;;;;;22.95;13.30;;;2.30;99.90;;;;;;5034064;28;20025;-77
2024/01/26 08:17:42;;;;;;;21.00;13.07;;;2.30;99.90;;;;;;5035184;28;20413;-77
2024/01/26 08:20:09;;;;;;;23.13;12.57;;;2.30;99.90;;;;;;5035125;28;20078;-77
2024/01/26 08:22:35;;;;;;;22.13;13.18;;;2.30;99.90;;;;;;5034969;28;20072;-77
2024/01/26 08:25:01;;;;;;;19.88;12.32;;;2.30;99.90;;;;;;5034134;28;20362;-77
2024/01/26 08:27:27;;;;;;;21.33;13.40;;;2.30;99.90;;;;;;5035061;28;20049;-77
2024/01/26 08:29:53;;;;;;;24.00;15.07;;;2.30;99.90;;;;;;5035038;28;20026;-77
2024/01/26 08:32:19;;;;;;;25.92;14.73;;;2.40;99.90;;;;;;5034969;28;20025;-77
2024/01/26 08:34:44;;;;;;;24.52;13.85;;;2.40;99.90;;;;;;5034915;28;20029;-77
2024/01/26 08:37:11;;;;;;;24.75;14.63;;;2.40;99.90;;;;;;5033455;28;20044;-77
2024/01/26 08:39:36;;;;;;;31.55;17.58;;;2.50;99.90;;;;;;5033418;28;20550;-77
2024/01/26 08:42:03;;;;;;;26.85;16.33;;;2.50;99.90;;;;;;5035057;28;20042;-77
2024/01/26 08:44:30;;;;;;;27.02;15.05;;;2.50;99.90;;;;;;5033475;28;20049;-77
2024/01/26 08:46:56;;;;;;;24.17;15.20;;;2.60;99.90;;;;;;5034773;28;20021;-76
2024/01/26 08:49:22;;;;;;;24.25;14.43;;;2.60;99.90;;;;;;5034913;28;20029;-76
2024/01/26 08:51:48;;;;;;;27.23;16.88;;;2.70;99.90;;;;;;5034571;28;20100;-76
2024/01/26 08:54:13;;;;;;;25.20;16.45;;;2.70;99.90;;;;;;5035009;28;20481;-76
2024/01/26 08:56:43;;;;;;;25.52;15.77;;;2.80;99.90;;;;;;5033580;28;20025;-76
2024/01/26 08:59:11;;;;;;;25.13;14.93;;;2.80;99.90;;;;;;5034960;28;20541;-76
2024/01/26 09:01:38;;;;;;;22.92;14.68;;;2.80;99.90;;;;;;5033615;28;20033;-75
2024/01/26 09:04:07;;;;;;;29.27;16.88;;;2.90;99.90;;;;;;5032670;28;20112;-76
2024/01/26 09:06:36;;;;;;;21.75;13.13;;;3.00;99.90;;;;;;5040344;28;20056;-75
2024/01/26 09:09:02;;;;;;;16.75;10.90;;;3.00;99.90;;;;;;5033760;28;20046;-75
2024/01/26 09:11:28;;;;;;;16.77;10.18;;;3.10;99.90;;;;;;5034668;28;20017;-76
2024/01/26 09:13:56;;;;;;;18.73;9.90;;;3.10;99.90;;;;;;5034565;28;20528;-76
2024/01/26 09:16:21;;;;;;;19.50;10.98;;;3.20;99.90;;;;;;5033348;28;20025;-76
2024/01/26 09:18:47;;;;;;;19.15;11.30;;;3.30;99.90;;;;;;5034361;28;20079;-75
2024/01/26 09:21:13;;;;;;;16.88;10.63;;;3.30;99.90;;;;;;5034484;28;20430;-77
2024/01/26 09:23:39;;;;;;;17.13;10.07;;;3.30;99.90;;;;;;5033247;28;20477;-76
2024/01/26 09:26:05;;;;;;;22.88;13.07;;;3.40;99.90;;;;;;5034433;28;20062;-76
2024/01/26 09:28:31;;;;;;;24.50;14.52;;;3.40;99.90;;;;;;5033283;28;20116;-76
2024/01/26 09:30:57;;;;;;;31.83;17.10;;;3.50;99.90;;;;;;5034786;28;20026;-76
2024/01/26 09:33:23;;;;;;;29.52;18.02;;;3.60;99.90;;;;;;5034146;28;20397;-75
2024/01/26 09:35:49;;;;;;;27.80;16.65;;;3.70;99.90;;;;;;5033031;28;20026;-76
2024/01/26 09:38:15;;;;;;;27.42;16.17;;;3.70;99.90;;;;;;5034117;28;20448;-76
2024/01/26 09:40:42;;;;;;;23.45;14.57;;;3.70;99.90;;;;;;5016510;28;20049;-76
2024/01/26 09:43:08;;;;;;;26.73;17.05;;;3.70;99.90;;;;;;5033090;28;20359;-75
2024/01/26 09:45:34;;;;;;;24.83;15.98;;;3.80;99.90;;;;;;5033230;28;20044;-76
2024/01/26 09:48:04;;;;;;;26.95;16.90;;;3.80;99.90;;;;;;5034041;28;20029;-76
2024/01/26 09:50:31;;;;;;;24.53;14.97;;;3.90;99.90;;;;;;5034286;28;20500;-75
2024/01/26 09:52:58;;;;;;;21.17;13.07;;;4.00;99.90;;;;;;5034062;28;20267;-76
2024/01/26 09:55:25;;;;;;;21.25;13.50;;;4.00;99.90;;;;;;5032885;28;20457;-76
2024/01/26 09:57:51;;;;;;;24.92;15.48;;;4.00;99.90;;;;;;5033885;28;20029;-76
2024/01/26 10:00:17;;;;;;;21.27;13.98;;;4.10;99.90;;;;;;5034342;28;20025;-76
2024/01/26 10:02:43;;;;;;;22.65;14.27;;;4.10;99.90;;;;;;5034208;28;20026;-76
2024/01/26 10:05:09;;;;;;;22.35;13.45;;;4.10;99.90;;;;;;5033898;28;20032;-76
2024/01/26 10:07:35;;;;;;;21.98;12.98;;;4.10;99.90;;;;;;5032521;28;20413;-76
2024/01/26 10:10:01;;;;;;;18.90;11.77;;;4.00;99.90;;;;;;5033483;28;20025;-76
2024/01/26 10:12:27;;;;;;;17.77;11.45;;;4.00;99.90;;;;;;5034039;28;20490;-76
2024/01/26 10:15:07;;;;;;;21.65;12.40;;;4.00;99.90;;;;;;5034562;28;20160;-74
2024/01/26 10:17:33;;;;;;;20.90;12.80;;;4.00;99.90;;;;;;5037859;28;20029;-76
2024/01/26 10:20:10;;;;;;;20.33;13.13;;;4.00;99.90;;;;;;5037650;28;20441;-76
2024/01/26 10:22:37;;;;;;;22.48;13.95;;;4.10;99.90;;;;;;5038028;28;20054;-76
2024/01/26 10:25:03;;;;;;;19.50;12.77;;;4.10;99.90;;;;;;5037185;28;20029;-76
2024/01/26 10:27:30;;;;;;;18.27;12.07;;;4.20;99.90;;;;;;5036156;28;20056;-76
2024/01/26 10:29:55;;;;;;;18.48;13.52;;;4.20;99.90;;;;;;5020211;28;20498;-76
2024/01/26 10:32:27;;;;;;;18.00;12.60;;;4.20;99.90;;;;;;5036706;28;20081;-76
2024/01/26 10:35:02;;;;;;;16.60;11.63;;;4.30;99.90;;;;;;5037551;28;20057;-76
2024/01/26 10:37:29;;;;;;;19.58;11.73;;;4.30;99.90;;;;;;5037133;28;20037;-76
2024/01/26 10:39:56;;;;;;;17.35;10.88;;;4.40;99.90;;;;;;5036934;28;20057;-76
2024/01/26 10:42:26;;;;;;;18.65;12.25;;;4.40;99.90;;;;;;5036008;28;20508;-77
2024/01/26 10:44:53;;;;;;;16.77;11.32;;;4.40;99.90;;;;;;5037156;28;20022;-76
2024/01/26 10:47:20;;;;;;;17.77;11.48;;;4.40;99.90;;;;;;5037137;28;20025;-77
2024/01/26 10:49:49;;;;;;;18.05;11.68;;;4.50;99.90;;;;;;5036148;28;20037;-76
2024/01/26 10:52:19;;;;;;;15.82;10.50;;;4.50;99.90;;;;;;5035770;28;20025;-76
2024/01/26 10:54:50;;;;;;;14.75;9.40;;;4.60;99.90;;;;;;5037068;28;20432;-76
2024/01/26 10:57:16;;;;;;;13.40;9.23;;;4.60;99.90;;;;;;5035733;28;20087;-76
2024/01/26 10:59:43;;;;;;;14.88;10.68;;;4.70;99.90;;;;;;5035617;28;20025;-76
2024/01/26 11:02:20;;;;;;;20.70;11.90;;;4.70;99.90;;;;;;5037100;28;20522;-76
2024/01/26 11:04:46;;;;;;;18.90;11.30;;;4.70;99.90;;;;;;5036517;28;20044;-76
2024/01/26 11:07:11;;;;;;;17.88;11.10;;;4.60;99.90;;;;;;5036639;28;20021;-76
2024/01/26 11:09:41;;;;;;;14.48;9.32;;;4.60;99.90;;;;;;5037626;28;20033;-76
2024/01/26 11:12:29;;;;;;;16.90;10.05;;;4.70;99.90;;;;;;5036993;28;20026;-77
2024/01/26 11:15:15;;;;;;;16.75;10.35;;;4.70;99.90;;;;;;5036689;28;20061;-77
2024/01/26 11:17:44;;;;;;;17.20;10.15;;;4.70;99.90;;;;;;5034916;28;20025;-76
2024/01/26 11:20:26;;;;;;;16.98;9.95;;;4.80;99.90;;;;;;5035278;28;20053;-76
2024/01/26 11:23:04;;;;;;;15.90;9.68;;;4.80;99.90;;;;;;5036533;28;20385;-77
2024/01/26 11:25:36;;;;;;;13.48;9.02;;;4.90;99.90;;;;;;5036155;28;20029;-77
2024/01/26 11:28:03;;;;;;;14.32;9.30;;;4.90;99.90;;;;;;5035208;28;20033;-76
2024/01/26 11:30:29;;;;;;;13.55;8.88;;;4.90;99.90;;;;;;5018482;28;20037;-76
2024/01/26 11:32:55;;;;;;;12.50;8.75;;;4.90;99.90;;;;;;5036038;28;20385;-77
2024/01/26 11:35:21;;;;;;;12.93;8.90;;;4.90;99.90;;;;;;5035150;28;20410;-76
2024/01/26 11:37:50;;;;;;;14.88;9.80;;;4.90;99.90;;;;;;5034624;28;20150;-76
2024/01/26 11:40:19;;;;;;;14.45;9.85;;;4.90;99.90;;;;;;5035994;28;20032;-76
2024/01/26 11:42:45;;;;;;;17.98;10.18;;;4.80;99.90;;;;;;5036326;28;20029;-76
2024/01/26 11:45:12;;;;;;;62.72;27.20;;;4.80;99.90;;;;;;5034866;28;20026;-77
2024/01/26 11:47:42;;;;;;;61.42;33.00;;;4.90;99.90;;;;;;5036081;28;20028;-77
2024/01/26 11:50:11;;;;;;;25.20;16.85;;;4.90;99.90;;;;;;5035152;28;20032;-75
2024/01/26 11:52:37;;;;;;;17.85;11.88;;;5.00;99.90;;;;;;5036255;28;20523;-77
2024/01/26 11:55:05;;;;;;;20.58;12.80;;;5.10;99.90;;;;;;5035890;28;20485;-76
2024/01/26 11:57:32;;;;;;;18.75;12.43;;;5.20;99.90;;;;;;5034425;28;20037;-76
2024/01/26 12:00:04;;;;;;;17.50;11.15;;;5.30;99.90;;;;;;5035721;28;20109;-76
2024/01/26 12:02:30;;;;;;;13.85;9.60;;;5.50;99.90;;;;;;5034583;28;20022;-76
2024/01/26 12:04:55;;;;;;;15.60;10.23;;;5.60;99.90;;;;;;5017723;28;20543;-76
2024/01/26 12:07:22;;;;;;;19.85;11.07;;;5.70;99.90;;;;;;5034442;28;20470;-76
2024/01/26 12:09:48;;;;;;;16.73;10.88;;;5.80;99.90;;;;;;5035614;28;20038;-77
2024/01/26 12:12:14;;;;;;;15.35;9.73;;;5.90;99.90;;;;;;5035645;28;20041;-77
2024/01/26 12:14:39;;;;;;;13.10;9.07;;;6.00;99.90;;;;;;5034273;28;20029;-76
2024/01/26 12:17:06;;;;;;;15.70;9.40;;;6.10;99.90;;;;;;5017674;28;20065;-77
2024/01/26 12:19:31;;;;;;;13.10;8.93;;;6.20;99.90;;;;;;5035113;28;20022;-77
2024/01/26 12:21:57;;;;;;;13.35;8.75;;;6.20;99.90;;;;;;5035638;28;20048;-76
2024/01/26 12:24:23;;;;;;;13.40;9.25;;;6.20;99.90;;;;;;5035499;28;20370;-76
2024/01/26 12:26:52;;;;;;;14.02;9.30;;;6.20;99.90;;;;;;5035302;28;20029;-77
2024/01/26 12:29:19;;;;;;;12.10;7.75;;;6.40;99.90;;;;;;5035392;28;20393;-77
2024/01/26 12:31:45;;;;;;;11.23;8.20;;;6.40;99.90;;;;;;5034004;28;20091;-76
2024/01/26 12:34:12;;;;;;;10.68;7.07;;;6.50;99.90;;;;;;5034997;28;20068;-75
2024/01/26 12:36:37;;;;;;;9.90;6.30;;;6.60;99.90;;;;;;5033681;28;20037;-77
2024/01/26 12:39:04;;;;;;;9.52;6.57;;;6.60;99.90;;;;;;5034823;28;20077;-77
2024/01/26 12:41:31;;;;;;;9.20;5.95;;;6.60;99.90;;;;;;5034849;28;20021;-76
2024/01/26 12:43:57;;;;;;;9.18;6.22;;;6.60;99.90;;;;;;5035165;28;20071;-76